Morton, IL (61550)

11:51 AM CDT on August 30, 2015 (GMT -0500)
Sunnyland | | Change Station
CLOSE
Current Station
Personal Weather Station
Location: Washington, IL
Elevation: 732 ft
Nearby Weather Stations

Elev 732 ft 40.69 °N, 89.48 °W | Updated 6 seconds ago

Overcast
Overcast
76.8 °F
Feels Like 78 °F
N
4.3
Wind Variable Wind from NNE
Gusts 4.3 mph

Today
High -- | Low -- °F
--% Chance of Precip.
Yesterday
High -- | Low -- °F
Precip. -- in
6:22 AM 7:33 PM
Full, 99% visible
Pressure 30.08 in
Visibility 3.0 miles
Clouds Overcast 300 ft
Heat Index 78 °F
Dew Point 72 °F
Humidity 84%
Rainfall 0.00 in
Snow Depth Not available.
UV 2 out of 12
Pollen 10.30 out of 12
Air Quality Not available.
Flu Activity Not available.
METAR KPIA 301554Z 07004KT 3SM HZ OVC003 23/19 A3009 RMK AO2 SLP184 T02280189
Pressure 30.08 in
Visibility 3.0 miles
Clouds Overcast 300 ft
Heat Index 78 °F
Dew Point 72 °F
Humidity 84%
Rainfall 0.00 in
Snow Depth Not available.
UV 2 out of 12
Pollen 10.30 out of 12
Air Quality Not available.
Flu Activity Not available.
METAR KPIA 301554Z 07004KT 3SM HZ OVC003 23/19 A3009 RMK AO2 SLP184 T02280189

10-Day Weather Forecast

×

Almanac

Astronomy

Aug. 30, 2015 Rise Set
Actual Time
Civil Twilight
Nautical Twilight
Astronomical Twilight
Moon
Length of Visible Light
Length of Day
Tomorrow will be .
, % of the Moon is Illuminated

Today's Extremes

State Highs State Lows

Community

WunderPhotos

Upload Photos

1,851,008 photos uploaded!

WunderBlogs® & News

Nearby

Air Quality

  Air Quality AQ Index Pollutant
Not available.

Snow Depth

Station Depth Elevation

Earthquake Activity

City Distance Mag. Time & Date
Minimum magnitude displayed is 2.5.

Coastal Water Temperatures

Place Temperature

Stations

Nearby Weather Stations

Station Location Temp. Windchill Dew Point Humidity Wind Precip. Elev Updated Type